CheckWX is a tool to help pilots better visualize weather data.  It is not intended as a substitute for an official pre-flight weather briefing.

22:27:38 UTC

KVLD TAF
Valdosta Regional Airport
Valdosta, Georgia, USA
KVLD 221859Z 2219/2318 34005KT P6SM VCSH SCT030 BKN050 FM222300 VRB02KT P6SM FEW250 FM231400 02007KT P6SM SKC

Oct-22@
19:00 UTC

Oct-22 @ 19:00 UTC

Oct-22@
23:00 UTC

Oct-22 @ 23:00 UTC

KVLD 221859Z 2219/2318 34005KT P6SM VCSH SCT030 BKN050
Wind
  • 340° at 5 KTS
Cloud Levels
  • Scattered at 3,000' AGL
  • Broken at 5,000' AGL

Oct-22@
23:00 UTC

Oct-22 @ 23:00 UTC

Oct-23@
14:00 UTC

Oct-23 @ 14:00 UTC

FM222300 VRB02KT P6SM FEW250

From

From Standard forecast or significant change

Wind
  • Variable at 2 KTS
Cloud Levels
  • Few at 25,000' AGL

Oct-23@
14:00 UTC

Oct-23 @ 14:00 UTC

Oct-23@
18:00 UTC

Oct-23 @ 18:00 UTC

FM231400 02007KT P6SM SKC

From

From Standard forecast or significant change

Wind
  • 020° at 7 KTS
Cloud Levels
  • Clear skies